Time;durP1;ratioP1;P1;durP2;ratioP2;P2;SDS_P1;SDS_P2;PMS_P1;PMS_P2;Temp;Humidity;BMP_temperature;BMP_pressure;BME280_temperature;BME280_humidity;BME280_pressure;Samples;Min_cycle;Max_cycle;Signal;HPM_P1;HPM_P2
2022/05/01 00:01:31;;;;;;;57.97;49.15;;;11.30;99.90;;;;;;5034749;28;20045;-62
2022/05/01 00:03:57;;;;;;;62.08;50.03;;;11.20;99.90;;;;;;5039455;28;20454;-63
2022/05/01 00:06:23;;;;;;;60.15;50.28;;;11.40;99.90;;;;;;5035784;28;20091;-62
2022/05/01 00:08:49;;;;;;;70.57;51.25;;;11.50;99.90;;;;;;5035959;28;20025;-62
2022/05/01 00:11:14;;;;;;;84.57;55.58;;;11.50;99.90;;;;;;5037217;28;20036;-62
2022/05/01 00:13:43;;;;;;;120.65;63.63;;;11.60;99.90;;;;;;5033137;28;20049;-62
2022/05/01 00:16:09;;;;;;;97.15;60.08;;;11.60;99.90;;;;;;5046084;28;20025;-62
2022/05/01 00:18:36;;;;;;;92.53;56.50;;;11.60;99.90;;;;;;5037319;28;20061;-62
2022/05/01 00:21:02;;;;;;;117.78;65.47;;;11.50;99.90;;;;;;5037642;28;20045;-62
2022/05/01 00:23:28;;;;;;;154.23;72.07;;;11.60;99.90;;;;;;5037110;28;20033;-62
2022/05/01 00:25:54;;;;;;;120.10;65.95;;;11.70;99.90;;;;;;5034199;28;20061;-62
2022/05/01 00:28:20;;;;;;;112.15;65.65;;;11.70;99.90;;;;;;5037109;28;20026;-63
2022/05/01 00:30:45;;;;;;;148.82;64.75;;;11.70;99.90;;;;;;5038124;28;20056;-62
2022/05/01 00:38:39;;;;;;;;;;;11.80;99.90;;;;;;5037179;28;20131;-63
2022/05/01 00:41:11;;;;;;;105.03;62.80;;;11.70;99.90;;;;;;5035793;28;20390;-62
2022/05/01 00:44:03;;;;;;;87.10;59.25;;;11.80;99.90;;;;;;5032601;28;20048;-62
2022/05/01 00:46:33;;;;;;;120.35;59.10;;;11.80;99.90;;;;;;5047344;28;20110;-62
2022/05/01 00:49:04;;;;;;;184.18;68.60;;;11.80;99.90;;;;;;5035781;28;20081;-62
2022/05/01 00:51:33;;;;;;;244.25;69.78;;;11.80;99.90;;;;;;5036470;28;20037;-62
2022/05/01 00:54:00;;;;;;;249.93;73.78;;;11.80;99.90;;;;;;5036757;28;20025;-61
2022/05/01 00:56:27;;;;;;;208.80;64.10;;;11.80;99.90;;;;;;5036875;28;20040;-62
2022/05/01 00:58:52;;;;;;;143.75;57.35;;;11.80;99.90;;;;;;5033292;28;20026;-60
2022/05/01 01:01:19;;;;;;;421.30;94.13;;;11.80;99.90;;;;;;5035415;28;20071;-62
2022/05/01 01:03:45;;;;;;;98.05;62.25;;;11.70;99.90;;;;;;5068756;28;20029;-62
2022/05/01 01:06:11;;;;;;;107.60;58.90;;;11.70;99.90;;;;;;5036238;28;20128;-62
2022/05/01 01:08:37;;;;;;;105.75;56.42;;;11.80;99.90;;;;;;5036311;28;20037;-62
2022/05/01 01:11:03;;;;;;;210.82;73.53;;;11.80;99.90;;;;;;5035154;28;20096;-62
2022/05/01 01:13:29;;;;;;;124.03;56.30;;;11.80;99.90;;;;;;5033440;28;20592;-62
2022/05/01 01:15:56;;;;;;;210.43;77.95;;;11.80;99.90;;;;;;5070116;28;20421;-62
2022/05/01 01:18:23;;;;;;;137.43;63.67;;;11.80;99.90;;;;;;5036234;28;20026;-62
2022/05/01 01:20:52;;;;;;;317.63;81.00;;;11.70;99.90;;;;;;5036206;28;20465;-62
2022/05/01 01:23:18;;;;;;;588.80;110.82;;;11.70;99.90;;;;;;5034613;28;20021;-62
2022/05/01 01:25:44;;;;;;;266.45;71.28;;;11.70;99.90;;;;;;5030586;28;20040;-62
2022/05/01 01:28:09;;;;;;;130.48;67.40;;;11.80;99.90;;;;;;5045285;28;20453;-62
2022/05/01 01:33:28;;;;;;;160.35;60.45;;;11.80;99.90;;;;;;5036101;28;20382;-62
2022/05/01 01:35:56;;;;;;;168.40;68.17;;;11.90;99.90;;;;;;5035775;28;20021;-62
2022/05/01 01:38:22;;;;;;;465.33;93.45;;;11.90;99.90;;;;;;5035716;28;20041;-62
2022/05/01 01:40:52;;;;;;;468.98;88.20;;;11.90;99.90;;;;;;5031747;28;20060;-62
2022/05/01 01:43:23;;;;;;;600.22;89.53;;;11.90;99.90;;;;;;5036019;28;20025;-63
2022/05/01 01:45:49;;;;;;;423.75;75.18;;;11.90;99.90;;;;;;5036693;28;20308;-62
2022/05/01 01:48:20;;;;;;;616.25;103.93;;;11.80;99.90;;;;;;5035567;28;20124;-62
2022/05/01 01:51:15;;;;;;;343.67;83.93;;;11.80;99.90;;;;;;5036264;28;20494;-62
2022/05/01 01:53:41;;;;;;;179.98;72.45;;;11.80;99.90;;;;;;5035041;28;20091;-62
2022/05/01 01:56:08;;;;;;;408.33;90.97;;;11.80;99.90;;;;;;5034555;28;20025;-62
2022/05/01 01:58:34;;;;;;;212.32;66.63;;;11.80;99.90;;;;;;5032074;28;20589;-61
2022/05/01 02:01:00;;;;;;;275.33;65.55;;;11.80;99.90;;;;;;5036949;28;20037;-62
2022/05/01 02:03:27;;;;;;;475.20;78.90;;;11.70;99.90;;;;;;5033817;28;20449;-62
2022/05/01 02:05:52;;;;;;;584.53;99.88;;;11.80;99.90;;;;;;5033760;28;20048;-61
2022/05/01 02:08:18;;;;;;;253.23;63.30;;;11.80;99.90;;;;;;5035651;28;20021;-62
2022/05/01 02:10:46;;;;;;;287.13;72.47;;;11.80;99.90;;;;;;5030944;28;20053;-62
2022/05/01 02:13:12;;;;;;;288.83;63.67;;;11.70;99.90;;;;;;5048205;28;20024;-62
2022/05/01 02:15:38;;;;;;;242.88;65.63;;;11.70;99.90;;;;;;5033290;28;20030;-62
2022/05/01 02:18:05;;;;;;;244.75;63.83;;;11.70;99.90;;;;;;5035431;28;20375;-61
2022/05/01 02:23:20;;;;;;;649.45;81.95;;;11.70;99.90;;;;;;5034200;28;20044;-62
2022/05/01 02:25:46;;;;;;;379.45;72.18;;;11.70;99.90;;;;;;5030048;28;20041;-62
2022/05/01 02:28:12;;;;;;;530.72;89.47;;;11.60;99.90;;;;;;5034342;28;20144;-62
2022/05/01 02:30:39;;;;;;;470.77;81.60;;;11.70;99.90;;;;;;5033511;28;20116;-62
2022/05/01 02:33:08;;;;;;;417.85;68.90;;;11.60;99.90;;;;;;5033809;28;20021;-62
2022/05/01 02:35:38;;;;;;;352.15;64.40;;;11.70;99.90;;;;;;5034122;28;20064;-62
2022/05/01 02:38:04;;;;;;;413.25;76.13;;;11.70;99.90;;;;;;5031977;28;20494;-62
2022/05/01 02:40:33;;;;;;;276.58;62.38;;;11.70;99.90;;;;;;5030988;28;20124;-62
2022/05/01 02:43:00;;;;;;;344.55;71.28;;;11.70;99.90;;;;;;5034247;28;20113;-62
2022/05/01 02:45:26;;;;;;;383.10;73.57;;;11.70;99.90;;;;;;5033336;28;20056;-62
2022/05/01 02:47:52;;;;;;;393.23;77.88;;;11.70;99.90;;;;;;5033599;28;20442;-62
2022/05/01 02:50:18;;;;;;;262.70;59.90;;;11.70;99.90;;;;;;5034145;28;20045;-62
2022/05/01 02:52:45;;;;;;;500.13;84.63;;;11.70;99.90;;;;;;5029258;28;20454;-62
2022/05/01 02:55:11;;;;;;;440.25;80.53;;;11.70;99.90;;;;;;5034112;28;20112;-62
2022/05/01 02:57:37;;;;;;;304.95;61.60;;;11.70;99.90;;;;;;5033481;28;20113;-62
2022/05/01 03:00:08;;;;;;;487.48;91.40;;;11.80;99.90;;;;;;5034331;28;20144;-62
2022/05/01 03:02:33;;;;;;;205.05;59.50;;;11.80;99.90;;;;;;5034540;28;20065;-62
2022/05/01 03:04:59;;;;;;;627.47;95.55;;;11.80;99.90;;;;;;5032000;28;20072;-62
2022/05/01 03:07:25;;;;;;;416.75;80.53;;;11.80;99.90;;;;;;5032794;28;20017;-62
2022/05/01 03:09:52;;;;;;;685.65;96.70;;;11.80;99.90;;;;;;5035791;28;20037;-62
2022/05/01 03:12:18;;;;;;;351.90;71.30;;;11.80;99.90;;;;;;5034301;28;20044;-61
2022/05/01 03:14:45;;;;;;;403.50;71.82;;;11.80;99.90;;;;;;5033949;28;20264;-62
2022/05/01 03:17:11;;;;;;;529.90;85.78;;;11.80;99.90;;;;;;5033849;28;20057;-62
2022/05/01 03:22:21;;;;;;;350.65;75.60;;;11.80;99.90;;;;;;5044183;28;20091;-62
2022/05/01 03:24:46;;;;;;;564.97;96.78;;;11.80;99.90;;;;;;5036612;28;20037;-61
2022/05/01 03:27:12;;;;;;;605.72;96.68;;;11.80;99.90;;;;;;5036789;28;20024;-62
2022/05/01 03:29:38;;;;;;;497.70;86.82;;;11.80;99.90;;;;;;5038243;28;20048;-62
2022/05/01 03:32:08;;;;;;;804.28;120.60;;;11.90;99.90;;;;;;5036762;28;20484;-62
2022/05/01 03:34:37;;;;;;;295.73;76.05;;;11.80;99.90;;;;;;5034949;28;20029;-61
2022/05/01 03:37:07;;;;;;;495.73;97.53;;;11.90;99.90;;;;;;5040062;28;20018;-61
2022/05/01 03:39:36;;;;;;;293.55;77.30;;;11.90;99.90;;;;;;5037660;28;20057;-61
2022/05/01 03:42:03;;;;;;;231.45;80.57;;;12.00;99.90;;;;;;5037668;28;20079;-61
2022/05/01 03:44:28;;;;;;;348.88;81.85;;;12.00;99.90;;;;;;5037837;28;20036;-62
2022/05/01 03:46:54;;;;;;;431.27;101.60;;;12.00;99.90;;;;;;5034913;28;20021;-62
2022/05/01 03:49:20;;;;;;;518.35;103.85;;;12.00;99.90;;;;;;5037668;28;20025;-62
2022/05/01 03:51:46;;;;;;;578.70;110.13;;;12.00;99.90;;;;;;5038949;28;20418;-62
2022/05/01 03:54:12;;;;;;;333.38;90.88;;;11.90;99.90;;;;;;5037557;28;20095;-62
2022/05/01 03:56:38;;;;;;;492.92;109.82;;;12.00;99.90;;;;;;5037316;28;20029;-62
2022/05/01 03:59:04;;;;;;;396.38;99.57;;;12.00;99.90;;;;;;5034722;28;20030;-61
2022/05/01 04:01:30;;;;;;;262.08;88.05;;;12.00;99.90;;;;;;5035104;28;20029;-62
2022/05/01 04:03:56;;;;;;;578.55;117.38;;;12.10;99.90;;;;;;5037916;28;20028;-62
2022/05/01 04:06:22;;;;;;;458.02;105.00;;;12.10;99.90;;;;;;5037747;28;20052;-62
2022/05/01 04:08:48;;;;;;;359.42;103.13;;;12.10;99.90;;;;;;5037799;28;20022;-62
2022/05/01 04:11:14;;;;;;;432.42;104.15;;;12.10;99.90;;;;;;5036803;28;20033;-61
2022/05/01 04:13:40;;;;;;;260.45;87.63;;;12.10;99.90;;;;;;5033157;28;20033;-61
2022/05/01 04:16:06;;;;;;;539.78;119.35;;;12.20;99.90;;;;;;5039288;28;20055;-62
2022/05/01 04:18:32;;;;;;;280.55;96.20;;;12.20;99.90;;;;;;5037619;28;20057;-61
2022/05/01 04:21:01;;;;;;;243.73;95.88;;;12.20;99.90;;;;;;5037228;28;20104;-62
2022/05/01 04:23:27;;;;;;;295.48;93.85;;;12.30;99.90;;;;;;5037120;28;20154;-61
2022/05/01 04:25:54;;;;;;;149.85;78.93;;;12.30;99.90;;;;;;5033813;28;20545;-61
2022/05/01 04:28:20;;;;;;;138.63;78.85;;;12.30;99.90;;;;;;5036783;28;20028;-62
2022/05/01 04:30:50;;;;;;;167.32;83.47;;;12.30;99.90;;;;;;5038015;28;20029;-62
2022/05/01 04:33:16;;;;;;;140.10;80.28;;;12.40;99.90;;;;;;5036959;28;20091;-62
2022/05/01 04:35:46;;;;;;;132.88;77.32;;;12.40;99.90;;;;;;5037128;28;20033;-62
2022/05/01 04:38:19;;;;;;;141.82;79.13;;;12.40;99.90;;;;;;5034840;28;20045;-62
2022/05/01 04:40:47;;;;;;;142.85;79.43;;;12.50;99.90;;;;;;5015611;28;20060;-61
2022/05/01 04:43:24;;;;;;;112.35;68.57;;;12.50;99.90;;;;;;5038054;28;20391;-62
2022/05/01 04:45:55;;;;;;;114.45;71.50;;;12.50;99.90;;;;;;5038305;28;20033;-62
2022/05/01 04:48:22;;;;;;;106.75;71.05;;;12.60;99.90;;;;;;5036803;28;20026;-61
2022/05/01 04:50:49;;;;;;;123.85;75.10;;;12.60;99.90;;;;;;5036770;28;20076;-61
2022/05/01 04:53:16;;;;;;;111.47;70.38;;;12.60;99.90;;;;;;5036431;28;20027;-61
2022/05/01 04:55:45;;;;;;;111.03;71.43;;;12.60;99.90;;;;;;5016627;28;20033;-61
2022/05/01 04:58:14;;;;;;;105.72;69.45;;;12.60;99.90;;;;;;5050214;28;20032;-61
2022/05/01 05:00:41;;;;;;;105.47;68.55;;;12.70;99.90;;;;;;5036865;28;20050;-62
2022/05/01 05:03:07;;;;;;;103.45;68.20;;;12.70;99.90;;;;;;5036552;28;20057;-62
2022/05/01 05:05:34;;;;;;;99.32;66.75;;;12.70;99.90;;;;;;5036263;28;20043;-62
2022/05/01 05:09:53;;;;;;;95.75;65.07;;;12.70;99.90;;;;;;5034188;28;20544;-62
2022/05/01 05:10:46;;;;;;;93.53;66.38;;;12.70;99.90;;;;;;5017212;28;20343;-62
2022/05/01 05:13:22;;;;;;;94.32;66.55;;;12.80;99.90;;;;;;5038240;28;20052;-61
2022/05/01 05:15:48;;;;;;;93.40;62.83;;;12.80;99.90;;;;;;5037518;28;20021;-62
2022/05/01 05:18:14;;;;;;;89.47;62.53;;;12.80;99.90;;;;;;5034746;28;20030;-61
2022/05/01 05:20:40;;;;;;;85.80;61.83;;;12.80;99.90;;;;;;5034520;28;20109;-61
2022/05/01 05:23:06;;;;;;;88.47;60.30;;;12.90;99.90;;;;;;5034685;28;20029;-62
2022/05/01 05:25:32;;;;;;;92.68;64.00;;;12.90;99.90;;;;;;5033209;28;20053;-62
2022/05/01 05:27:58;;;;;;;81.07;59.88;;;12.90;99.90;;;;;;5037995;28;20091;-61
2022/05/01 05:30:24;;;;;;;79.15;58.28;;;12.90;99.90;;;;;;5036088;28;20383;-61
2022/05/01 05:32:50;;;;;;;80.07;59.40;;;12.90;99.90;;;;;;5035842;28;20443;-61
2022/05/01 05:35:15;;;;;;;84.53;60.35;;;12.90;99.90;;;;;;5035938;28;20021;-61
2022/05/01 05:37:41;;;;;;;76.65;58.70;;;12.90;99.90;;;;;;5015423;28;20053;-62
2022/05/01 05:40:08;;;;;;;73.57;56.30;;;12.90;99.90;;;;;;5038012;28;20068;-61
2022/05/01 05:42:34;;;;;;;70.60;54.97;;;12.90;99.90;;;;;;5035591;28;20022;-62
2022/05/01 05:45:00;;;;;;;68.57;53.72;;;12.90;99.90;;;;;;5035661;28;20383;-61
2022/05/01 05:47:26;;;;;;;69.97;52.08;;;12.90;99.90;;;;;;5035333;28;20029;-62
2022/05/01 05:49:52;;;;;;;64.38;53.28;;;12.90;99.90;;;;;;5031894;28;20072;-62
2022/05/01 05:52:18;;;;;;;62.78;52.15;;;12.90;99.90;;;;;;5035601;28;20462;-62
2022/05/01 05:54:44;;;;;;;67.30;53.60;;;12.90;99.90;;;;;;5036238;28;20087;-62
2022/05/01 05:57:09;;;;;;;65.65;52.47;;;13.00;99.90;;;;;;5034463;28;20024;-62
2022/05/01 05:59:35;;;;;;;66.90;53.17;;;13.00;99.90;;;;;;5033900;28;20435;-62
2022/05/01 06:02:03;;;;;;;69.60;54.90;;;13.00;99.90;;;;;;5033360;28;20013;-62
2022/05/01 06:04:29;;;;;;;64.38;51.00;;;13.10;99.90;;;;;;5032716;28;20548;-61
2022/05/01 06:06:54;;;;;;;73.00;53.72;;;13.10;99.90;;;;;;5035736;28;20577;-62
2022/05/01 06:09:20;;;;;;;63.50;51.33;;;13.20;99.90;;;;;;5035141;28;20104;-62
2022/05/01 06:11:46;;;;;;;61.08;48.83;;;13.20;99.90;;;;;;5034030;28;20117;-61
2022/05/01 06:14:12;;;;;;;52.80;46.65;;;13.20;99.90;;;;;;5034741;28;20032;-61
2022/05/01 06:16:38;;;;;;;57.15;45.92;;;13.30;99.90;;;;;;5031204;28;20037;-62
2022/05/01 06:19:07;;;;;;;54.38;46.03;;;13.30;99.90;;;;;;5037299;28;20082;-61
2022/05/01 06:21:33;;;;;;;50.58;45.17;;;13.40;99.90;;;;;;5034556;28;20040;-62
2022/05/01 06:23:58;;;;;;;50.97;44.22;;;13.40;99.90;;;;;;5033520;28;20022;-61
2022/05/01 06:26:24;;;;;;;50.58;45.05;;;13.40;99.90;;;;;;5035016;28;20159;-61
2022/05/01 06:28:50;;;;;;;51.17;43.80;;;13.50;99.90;;;;;;5031328;28;20018;-62
2022/05/01 06:31:16;;;;;;;48.67;42.30;;;13.50;99.90;;;;;;5035438;28;20032;-61
2022/05/01 06:33:43;;;;;;;49.22;42.85;;;13.30;99.90;;;;;;5035444;28;20037;-61
2022/05/01 06:36:09;;;;;;;51.58;43.28;;;13.40;99.90;;;;;;5032994;28;20021;-61
2022/05/01 06:38:35;;;;;;;50.80;43.97;;;13.40;99.90;;;;;;5033433;28;20048;-62
2022/05/01 06:41:05;;;;;;;48.50;42.42;;;13.40;99.90;;;;;;5031337;28;20033;-62
2022/05/01 06:43:31;;;;;;;47.67;41.72;;;13.50;99.90;;;;;;5031761;28;20040;-61
2022/05/01 06:45:56;;;;;;;46.15;40.45;;;13.50;99.90;;;;;;5036626;28;20030;-61
2022/05/01 06:48:22;;;;;;;42.38;37.78;;;13.50;99.90;;;;;;5034498;28;20032;-61
2022/05/01 06:50:48;;;;;;;46.00;40.95;;;13.60;99.90;;;;;;5034196;28;20029;-61
2022/05/01 06:53:14;;;;;;;45.45;39.80;;;13.60;99.90;;;;;;5034185;28;20025;-62
2022/05/01 06:55:39;;;;;;;42.80;38.20;;;13.70;99.90;;;;;;5030351;28;20039;-61
2022/05/01 06:58:05;;;;;;;49.55;41.10;;;13.80;99.90;;;;;;5035576;28;20414;-61
2022/05/01 07:00:31;;;;;;;44.63;39.78;;;13.80;99.90;;;;;;5034634;28;20521;-60
2022/05/01 07:02:57;;;;;;;43.67;38.88;;;13.70;99.90;;;;;;5034335;28;20033;-61
2022/05/01 07:05:23;;;;;;;41.92;37.33;;;13.80;99.90;;;;;;5034028;28;20028;-61
2022/05/01 07:07:50;;;;;;;46.25;39.70;;;13.80;99.90;;;;;;5030946;28;20498;-61
2022/05/01 07:10:16;;;;;;;42.03;37.55;;;14.00;99.90;;;;;;5035179;28;20382;-61
2022/05/01 07:12:42;;;;;;;41.03;36.53;;;14.00;99.90;;;;;;5033390;28;20041;-61
2022/05/01 07:15:08;;;;;;;42.13;37.53;;;14.10;99.90;;;;;;5032636;28;20034;-61
2022/05/01 07:17:34;;;;;;;41.50;37.17;;;14.20;99.90;;;;;;5032468;28;20033;-61
2022/05/01 07:20:02;;;;;;;39.63;35.55;;;14.30;99.90;;;;;;5032188;28;20032;-60
2022/05/01 07:22:29;;;;;;;38.60;34.80;;;14.30;99.90;;;;;;5031754;28;20094;-61
2022/05/01 07:24:55;;;;;;;39.10;34.92;;;14.30;99.90;;;;;;5034253;28;20029;-61
2022/05/01 07:27:20;;;;;;;43.55;37.10;;;14.20;99.90;;;;;;5034124;28;20025;-61
2022/05/01 07:29:46;;;;;;;38.90;34.30;;;14.30;99.90;;;;;;5034088;28;20025;-60
2022/05/01 07:32:12;;;;;;;39.30;35.22;;;14.20;99.90;;;;;;5033899;28;20056;-61
2022/05/01 07:34:38;;;;;;;42.40;35.97;;;14.20;99.90;;;;;;5029860;28;20029;-61
2022/05/01 07:37:04;;;;;;;38.72;34.53;;;14.40;99.90;;;;;;5036050;28;20486;-61
2022/05/01 07:39:30;;;;;;;39.22;34.15;;;14.70;99.90;;;;;;5033748;28;20045;-61
2022/05/01 07:41:56;;;;;;;36.38;32.35;;;14.90;99.90;;;;;;5033891;28;20068;-61
2022/05/01 07:44:22;;;;;;;37.28;33.22;;;15.20;99.90;;;;;;5034197;28;20052;-61
2022/05/01 07:46:48;;;;;;;35.72;31.65;;;15.30;99.90;;;;;;5030209;28;22458;-61
2022/05/01 07:49:14;;;;;;;35.85;31.67;;;15.40;99.90;;;;;;5035115;28;20053;-61
2022/05/01 07:51:40;;;;;;;33.70;29.88;;;15.50;99.90;;;;;;5034308;28;20049;-61
2022/05/01 07:54:06;;;;;;;32.80;29.25;;;15.70;99.90;;;;;;5032373;28;20493;-61
2022/05/01 07:56:33;;;;;;;34.10;30.42;;;16.10;99.90;;;;;;5032429;28;20033;-61
2022/05/01 07:58:59;;;;;;;31.20;28.00;;;16.10;99.90;;;;;;5031991;28;20030;-61
2022/05/01 08:01:26;;;;;;;32.30;29.00;;;16.40;99.90;;;;;;5032030;28;20024;-61
2022/05/01 08:06:36;;;;;;;29.75;26.50;;;16.70;99.90;;;;;;5033939;28;20048;-60
2022/05/01 08:09:03;;;;;;;29.02;26.02;;;17.00;99.90;;;;;;5033990;28;20021;-61
2022/05/01 08:11:29;;;;;;;26.55;23.42;;;19.40;99.90;;;;;;5036806;28;20801;-61
2022/05/01 08:13:55;;;;;;;25.05;22.42;;;22.30;99.90;;;;;;5035171;28;20028;-61
2022/05/01 08:16:21;;;;;;;23.92;21.40;;;23.10;99.90;;;;;;5037153;28;20033;-61
2022/05/01 08:21:32;;;;;;;22.30;19.95;;;23.90;99.90;;;;;;5037478;28;20084;-61
2022/05/01 08:23:59;;;;;;;22.55;20.13;;;24.40;99.90;;;;;;5037170;28;20052;-61
2022/05/01 08:26:25;;;;;;;21.35;18.95;;;23.40;99.90;;;;;;5037739;28;20477;-61
2022/05/01 08:28:54;;;;;;;20.92;18.73;;;23.30;99.90;;;;;;5033765;28;20030;-61
2022/05/01 08:31:21;;;;;;;20.13;18.05;;;24.20;99.90;;;;;;5036670;28;20037;-61
2022/05/01 08:33:47;;;;;;;21.13;17.88;;;23.80;99.90;;;;;;5038211;28;20049;-61
2022/05/01 08:36:13;;;;;;;20.27;18.20;;;22.80;99.90;;;;;;5035520;28;20029;-61
2022/05/01 08:38:39;;;;;;;19.98;17.90;;;22.30;99.90;;;;;;5036805;28;20085;-61
2022/05/01 08:41:07;;;;;;;19.23;17.35;;;22.60;99.90;;;;;;5035402;28;20045;-61
2022/05/01 08:43:34;;;;;;;18.95;16.95;;;23.30;99.90;;;;;;5033820;28;20017;-61
2022/05/01 08:46:13;;;;;;;19.13;17.15;;;23.20;99.90;;;;;;5038602;28;20059;-60
2022/05/01 08:49:03;;;;;;;18.75;16.70;;;23.90;99.90;;;;;;5036736;28;20037;-61
2022/05/01 08:51:32;;;;;;;18.02;16.33;;;25.70;99.90;;;;;;5036632;28;20025;-61
2022/05/01 08:54:00;;;;;;;20.98;15.63;;;26.80;98.80;;;;;;5036801;28;20118;-60
2022/05/01 08:56:26;;;;;;;18.27;16.17;;;27.70;98.10;;;;;;5037178;28;20443;-61
2022/05/01 08:58:53;;;;;;;23.08;16.10;;;26.50;98.10;;;;;;5033206;28;20056;-61
2022/05/01 09:01:20;;;;;;;17.20;15.55;;;25.60;99.30;;;;;;5036204;28;20095;-61
2022/05/01 09:03:47;;;;;;;16.95;15.25;;;26.70;98.00;;;;;;5037329;28;20022;-61
2022/05/01 09:06:13;;;;;;;17.67;14.75;;;27.80;97.70;;;;;;5036456;28;20025;-61
2022/05/01 09:08:40;;;;;;;18.45;15.57;;;27.60;96.40;;;;;;5036266;28;20506;-61
2022/05/01 09:13:51;;;;;;;16.63;13.25;;;26.90;97.50;;;;;;5018623;28;20442;-59
2022/05/01 09:16:16;;;;;;;15.90;13.80;;;27.40;96.70;;;;;;5049251;28;20017;-61
2022/05/01 09:18:44;;;;;;;15.02;12.95;;;27.50;96.70;;;;;;5035336;28;20052;-60
2022/05/01 09:21:10;;;;;;;13.80;11.77;;;28.90;95.90;;;;;;5035170;28;20116;-61
2022/05/01 09:23:43;;;;;;;14.00;12.60;;;29.10;93.20;;;;;;5031584;28;20033;-62
2022/05/01 09:26:10;;;;;;;12.98;11.65;;;28.10;94.50;;;;;;5035151;28;20033;-61
2022/05/01 09:28:46;;;;;;;12.77;10.60;;;28.70;93.90;;;;;;5032053;28;20030;-61
2022/05/01 09:31:11;;;;;;;15.77;12.65;;;28.80;92.70;;;;;;5048632;28;20033;-61
2022/05/01 09:33:37;;;;;;;12.30;11.05;;;28.20;92.70;;;;;;5036228;28;20048;-61
2022/05/01 09:36:03;;;;;;;12.75;11.20;;;27.90;94.30;;;;;;5036224;28;20111;-61
2022/05/01 09:38:29;;;;;;;15.65;11.68;;;27.00;94.10;;;;;;5035582;28;20187;-61
2022/05/01 09:41:01;;;;;;;13.32;11.95;;;25.70;95.80;;;;;;5032669;28;20029;-61
2022/05/01 09:43:42;;;;;;;13.45;12.15;;;25.70;95.50;;;;;;5033796;28;20029;-61
2022/05/01 09:46:23;;;;;;;14.02;12.52;;;27.10;93.80;;;;;;5036960;28;20022;-61
2022/05/01 09:49:00;;;;;;;16.08;12.32;;;25.20;94.90;;;;;;5036765;28;20120;-61
2022/05/01 09:51:28;;;;;;;12.93;11.55;;;25.50;94.30;;;;;;5034486;28;20045;-61
2022/05/01 09:53:54;;;;;;;13.35;11.52;;;26.60;94.50;;;;;;5033993;28;20487;-61
2022/05/01 09:56:20;;;;;;;13.30;11.90;;;26.80;93.90;;;;;;5035480;28;20021;-61
2022/05/01 09:58:46;;;;;;;12.32;11.05;;;26.20;93.00;;;;;;5030992;28;20095;-61
2022/05/01 10:01:14;;;;;;;13.13;10.77;;;25.50;94.60;;;;;;5037036;28;20042;-61
2022/05/01 10:03:48;;;;;;;12.98;11.13;;;25.70;95.10;;;;;;5036204;28;20030;-61
2022/05/01 10:06:15;;;;;;;14.18;11.15;;;25.70;94.60;;;;;;5035299;28;20140;-61
2022/05/01 10:08:44;;;;;;;13.90;10.70;;;25.70;95.30;;;;;;5035221;28;20025;-61
2022/05/01 10:11:17;;;;;;;14.43;10.52;;;27.20;95.20;;;;;;5034219;28;20040;-61
2022/05/01 10:13:46;;;;;;;12.25;10.90;;;27.60;94.50;;;;;;5014985;28;20017;-61
2022/05/01 10:16:15;;;;;;;13.50;11.07;;;27.00;92.50;;;;;;5044466;28;20501;-61
2022/05/01 10:18:44;;;;;;;13.27;10.80;;;25.90;93.20;;;;;;5035840;28;20025;-61
2022/05/01 10:21:10;;;;;;;12.98;10.05;;;25.50;93.30;;;;;;5034671;28;20044;-60
2022/05/01 10:23:36;;;;;;;13.60;11.07;;;26.30;93.50;;;;;;5035296;28;20036;-61
2022/05/01 10:26:24;;;;;;;13.80;10.70;;;24.30;95.20;;;;;;5033054;28;20028;-61
2022/05/01 10:29:17;;;;;;;10.77;9.05;;;24.40;95.40;;;;;;5014637;28;20034;-61
2022/05/01 10:35:04;;;;;;;10.93;8.10;;;27.50;92.70;;;;;;5046151;28;20117;-61
2022/05/01 10:37:54;;;;;;;8.32;7.38;;;27.60;91.20;;;;;;5044770;28;20119;-61
2022/05/01 10:40:21;;;;;;;9.10;7.22;;;27.30;91.20;;;;;;5044634;28;20055;-61
2022/05/01 10:42:49;;;;;;;8.20;7.15;;;26.80;90.80;;;;;;5035114;28;20033;-61
2022/05/01 10:45:21;;;;;;;7.93;6.97;;;25.80;91.00;;;;;;5034608;28;20049;-60
2022/05/01 10:47:49;;;;;;;13.68;7.10;;;26.10;92.40;;;;;;5034754;28;20479;-60
2022/05/01 10:50:26;;;;;;;9.68;7.38;;;26.90;91.00;;;;;;5034798;28;20018;-61
2022/05/01 10:53:09;;;;;;;9.15;7.13;;;27.70;89.70;;;;;;5016535;28;20103;-61
2022/05/01 10:55:53;;;;;;;8.98;7.03;;;27.50;90.40;;;;;;5030953;28;20034;-61
2022/05/01 10:58:21;;;;;;;9.10;6.75;;;27.50;90.40;;;;;;5043186;28;20033;-61
2022/05/01 11:00:48;;;;;;;6.95;6.25;;;27.40;91.10;;;;;;5036596;28;20048;-61
2022/05/01 11:03:30;;;;;;;10.18;6.32;;;27.40;90.80;;;;;;5033325;28;20466;-61
2022/05/01 11:06:02;;;;;;;10.80;6.47;;;27.10;90.70;;;;;;5032739;28;20045;-61
2022/05/01 11:08:33;;;;;;;10.60;6.95;;;27.10;90.70;;;;;;5032981;28;20045;-61
2022/05/01 11:11:00;;;;;;;9.65;7.13;;;27.10;86.00;;;;;;5029785;28;20021;-61
2022/05/01 11:13:33;;;;;;;7.20;6.50;;;26.60;87.10;;;;;;5031302;28;20041;-60
2022/05/01 11:15:59;;;;;;;10.23;6.90;;;25.70;90.50;;;;;;5034849;28;20044;-61
2022/05/01 11:18:50;;;;;;;8.02;6.60;;;26.90;86.80;;;;;;5034379;28;20690;-60
2022/05/01 11:21:24;;;;;;;9.45;7.00;;;26.80;84.90;;;;;;5031007;28;20128;-61
2022/05/01 11:24:01;;;;;;;9.48;6.70;;;26.90;84.70;;;;;;5034495;28;20036;-61
2022/05/01 11:26:27;;;;;;;11.57;7.10;;;25.50;87.40;;;;;;5033535;28;20032;-61
2022/05/01 11:28:55;;;;;;;7.07;6.00;;;26.10;85.20;;;;;;5030908;28;20028;-60
2022/05/01 11:31:44;;;;;;;8.82;6.35;;;25.90;85.40;;;;;;5034043;28;20025;-61
2022/05/01 11:34:16;;;;;;;10.75;6.18;;;26.30;86.30;;;;;;5042165;28;20417;-61
2022/05/01 11:37:06;;;;;;;9.32;5.47;;;27.20;86.90;;;;;;5034400;28;20060;-60
2022/05/01 11:39:49;;;;;;;7.40;5.50;;;27.70;86.20;;;;;;5033302;28;20049;-60
2022/05/01 11:42:24;;;;;;;7.43;5.35;;;27.60;85.30;;;;;;5032247;28;20155;-61
2022/05/01 11:44:50;;;;;;;8.73;5.90;;;27.50;85.80;;;;;;5035251;28;20445;-61
2022/05/01 11:47:19;;;;;;;9.07;5.90;;;27.00;90.80;;;;;;5035817;28;20653;-60
2022/05/01 11:49:46;;;;;;;8.05;5.60;;;26.30;92.10;;;;;;5016627;28;20033;-61
2022/05/01 11:52:16;;;;;;;8.43;5.82;;;25.90;92.00;;;;;;5046889;28;20436;-61
2022/05/01 11:54:53;;;;;;;8.38;5.80;;;25.00;93.10;;;;;;5037753;28;20033;-61
2022/05/01 12:03:05;;;;;;;10.30;6.07;;;25.70;91.40;;;;;;5037866;28;20029;-61
2022/05/01 12:05:32;;;;;;;8.70;5.63;;;26.20;91.10;;;;;;5037078;28;20028;-61
2022/05/01 12:07:59;;;;;;;6.82;5.95;;;26.10;90.60;;;;;;5034714;28;20055;-61
2022/05/01 12:10:26;;;;;;;8.40;5.93;;;25.70;91.10;;;;;;5035870;28;20057;-61
2022/05/01 12:12:52;;;;;;;8.70;5.93;;;24.80;91.60;;;;;;5039014;28;20025;-60
2022/05/01 12:15:18;;;;;;;10.60;6.07;;;25.70;92.90;;;;;;5037330;28;20052;-61
2022/05/01 12:17:44;;;;;;;8.30;5.93;;;26.30;92.70;;;;;;5037796;28;20075;-61
2022/05/01 12:20:11;;;;;;;11.68;6.00;;;26.20;91.90;;;;;;5035805;28;20059;-60
2022/05/01 12:22:39;;;;;;;7.80;5.80;;;26.10;90.90;;;;;;5033262;28;20030;-62
2022/05/01 12:25:11;;;;;;;6.93;5.75;;;26.00;90.90;;;;;;5038955;28;20030;-62
2022/05/01 12:27:40;;;;;;;8.30;5.40;;;26.70;89.50;;;;;;5035832;28;20481;-62
2022/05/01 12:30:08;;;;;;;8.82;5.45;;;26.10;88.90;;;;;;5035780;28;20061;-62
2022/05/01 12:32:35;;;;;;;9.63;5.00;;;25.70;89.60;;;;;;5037099;28;20070;-61
2022/05/01 12:35:03;;;;;;;8.38;5.30;;;26.20;91.00;;;;;;5035248;28;20134;-61
2022/05/01 12:37:34;;;;;;;8.07;5.60;;;26.50;90.50;;;;;;5034592;28;20083;-61
2022/05/01 12:39:59;;;;;;;6.47;4.85;;;26.50;86.80;;;;;;5036537;28;20103;-60
2022/05/01 12:45:21;;;;;;;7.03;5.65;;;25.60;91.20;;;;;;5037191;28;20040;-61
2022/05/01 12:47:52;;;;;;;9.57;5.50;;;26.30;92.20;;;;;;5036900;28;20570;-62
2022/05/01 12:50:24;;;;;;;8.00;5.72;;;26.50;92.00;;;;;;5036812;28;20098;-60
2022/05/01 12:52:57;;;;;;;44.60;11.68;;;27.00;99.90;;;;;;5032662;28;20026;-58
2022/05/01 12:55:33;;;;;;;12.32;6.47;;;25.00;94.20;;;;;;5035915;28;20071;-58
2022/05/01 12:58:01;;;;;;;13.10;6.00;;;24.20;95.80;;;;;;5036560;28;20029;-57
2022/05/01 13:00:45;;;;;;;7.28;5.80;;;23.70;95.90;;;;;;5035093;28;20073;-58
2022/05/01 13:03:25;;;;;;;9.43;6.03;;;24.20;95.60;;;;;;5042709;28;20052;-59
2022/05/01 13:05:56;;;;;;;9.35;6.10;;;23.80;95.70;;;;;;5032809;28;20401;-58